OIGG  Sardar-e-Jangal  Airport

Rasht, Iran

Add Bookmark
ICAO OIGG
IATA RAS
Type Airport
Status Operational
Latitude
37° 19' 23" N
37.323333
Longitude
49° 37' 4" E
49.617778
Local (DST + 5) UTC (GMT + 4)
Aug 1, 2015 02:14 Aug 1, 2015 09:44
Sunrise-Sunset Local UTC
Begin Civil Twilight 05:45 01:15
Sunrise 06:14 01:44
Sunset 08:21 15:51
End Civil Twilight 08:50 16:20
VFR
VFR
MVFR
MVFR
IFR
IFR
LIFR
LIFR
Unknown
Unavailable

Current Weather

METAR Observed VFR
OIGG 010900Z 09006KT CAVOK 34/21 Q1007 Sat, Aug 1, 2015 @ 09:00 UTC
(44 Minutes ago)
Visual Flight Rules
Wind Visibility Conditions
090° at 6 knots (11 kph) 10 km or more
  • No significant weather
Temperatures Readings Precipitation
Current Temp
34°C
93°F
Dewpoint
21°C
70°F
Heat Index
37°C
99°
Humidity 47%
Altimeter 29.73" Hg
Sea Level Pressure 1,007 mb
None Recorded

Forecast Weather

TAF
TAF OIGG 010800Z 0109/0118 02004MPS CAVOK
From To
Sat, Aug 1, 2015 @ 09:00 UTC Sat, Aug 1, 2015 @ 18:00 UTC
Wind Visibility Conditions
020° at 8 knots (15 kph) 10 km or more
  • No significant weather
-
-

CheckWX.com is intended as a tool to help pilots better visualize weather data. It is not intended as a substitute for an official weather briefing obtained from a Flight Service Station. CheckWX.com does not meet the FAA requirements for an official pre-flight weather briefing. Therefore, it's important that pilots still call and obtain an official FSS pre-flight weather briefing.

© 2007-2015 CheckWX.com
09:44:36 UTC